Time;durP1;ratioP1;P1;durP2;ratioP2;P2;SDS_P1;SDS_P2;PMS_P1;PMS_P2;Temp;Humidity;BMP_temperature;BMP_pressure;BME280_temperature;BME280_humidity;BME280_pressure;Samples;Min_cycle;Max_cycle;Signal;HPM_P1;HPM_P2
2022/05/06 00:01:25;;;;;;;1.77;1.75;;;12.90;82.90;;;;;;5011020;28;20184;-74
2022/05/06 00:03:51;;;;;;;1.67;1.60;;;12.90;82.40;;;;;;5012510;28;20177;-75
2022/05/06 00:06:17;;;;;;;1.50;1.50;;;12.80;82.60;;;;;;5014181;28;20183;-74
2022/05/06 00:08:43;;;;;;;4.85;1.70;;;12.80;82.40;;;;;;5010660;28;20246;-74
2022/05/06 00:11:08;;;;;;;2.03;1.95;;;12.80;82.70;;;;;;5017604;28;20187;-75
2022/05/06 00:13:35;;;;;;;1.65;1.55;;;12.70;82.70;;;;;;5015919;28;20185;-75
2022/05/06 00:16:03;;;;;;;1.48;1.38;;;12.70;82.20;;;;;;5040073;28;20197;-74
2022/05/06 00:18:33;;;;;;;1.85;1.83;;;12.70;82.00;;;;;;5014675;28;20177;-74
2022/05/06 00:20:58;;;;;;;1.92;1.60;;;12.70;82.10;;;;;;5017589;28;20196;-74
2022/05/06 00:23:24;;;;;;;2.45;1.88;;;12.70;82.00;;;;;;5008830;28;20215;-74
2022/05/06 00:25:50;;;;;;;2.28;2.15;;;12.70;82.30;;;;;;5009703;28;20208;-74
2022/05/06 00:28:16;;;;;;;3.05;2.30;;;12.70;82.30;;;;;;5012984;28;20173;-74
2022/05/06 00:30:42;;;;;;;2.17;2.08;;;12.70;82.30;;;;;;5015967;28;20185;-74
2022/05/06 00:33:09;;;;;;;1.88;1.77;;;12.70;82.10;;;;;;5009624;28;20211;-74
2022/05/06 00:35:38;;;;;;;2.47;2.38;;;12.70;82.40;;;;;;5015545;28;20241;-74
2022/05/06 00:38:05;;;;;;;2.03;1.92;;;12.70;82.40;;;;;;5012427;28;20181;-75
2022/05/06 00:40:31;;;;;;;2.45;2.22;;;12.80;82.70;;;;;;5008773;28;20252;-74
2022/05/06 00:42:58;;;;;;;2.00;2.00;;;12.80;82.80;;;;;;5029597;28;20268;-74
2022/05/06 00:45:26;;;;;;;2.30;2.20;;;12.80;83.10;;;;;;5044853;28;20766;-74
2022/05/06 00:47:52;;;;;;;2.17;2.08;;;12.80;83.60;;;;;;5017153;28;20260;-74
2022/05/06 00:50:18;;;;;;;2.50;2.28;;;12.80;82.80;;;;;;5009822;28;20185;-74
2022/05/06 00:52:44;;;;;;;2.17;2.00;;;12.80;82.90;;;;;;5014034;28;20219;-74
2022/05/06 00:55:10;;;;;;;2.45;2.20;;;12.70;82.90;;;;;;5012425;28;20212;-75
2022/05/06 00:57:36;;;;;;;2.55;2.38;;;12.70;82.70;;;;;;5012352;28;20219;-74
2022/05/06 01:00:19;;;;;;;2.83;2.63;;;12.70;82.80;;;;;;5006718;28;20189;-75
2022/05/06 01:02:46;;;;;;;2.45;2.33;;;12.70;83.00;;;;;;5013793;28;20188;-74
2022/05/06 01:05:13;;;;;;;3.55;3.20;;;12.70;83.90;;;;;;5014585;28;20184;-73
2022/05/06 01:07:45;;;;;;;2.88;2.58;;;12.70;83.80;;;;;;5016037;28;20324;-73
2022/05/06 01:10:11;;;;;;;6.53;2.72;;;12.50;83.60;;;;;;5013783;28;20181;-73
2022/05/06 01:12:37;;;;;;;2.33;2.22;;;12.50;83.90;;;;;;5007263;28;20184;-73
2022/05/06 01:15:19;;;;;;;2.63;2.53;;;12.50;83.70;;;;;;5012266;28;20182;-73
2022/05/06 01:17:49;;;;;;;2.15;2.00;;;12.50;83.80;;;;;;5015429;28;20675;-73
2022/05/06 01:20:16;;;;;;;2.55;2.45;;;12.50;84.10;;;;;;5013787;28;20316;-73
2022/05/06 01:22:54;;;;;;;2.95;2.80;;;12.40;83.90;;;;;;5013316;28;20181;-73
2022/05/06 01:25:23;;;;;;;2.85;2.72;;;12.40;84.50;;;;;;5015804;28;20191;-73
2022/05/06 01:27:52;;;;;;;3.13;2.92;;;12.40;84.70;;;;;;5013622;28;20215;-72
2022/05/06 01:30:37;;;;;;;2.50;2.28;;;12.40;84.10;;;;;;5009618;28;20182;-73
2022/05/06 01:33:05;;;;;;;2.22;2.13;;;12.40;83.60;;;;;;5017550;28;20555;-73
2022/05/06 01:35:36;;;;;;;3.20;2.92;;;12.40;84.00;;;;;;5009127;28;20184;-74
2022/05/06 01:38:05;;;;;;;4.43;3.20;;;12.40;84.00;;;;;;5017533;28;20259;-73
2022/05/06 01:40:35;;;;;;;2.58;2.40;;;12.30;84.20;;;;;;5014368;28;20184;-73
2022/05/06 01:43:02;;;;;;;2.55;2.45;;;12.30;84.50;;;;;;5014748;28;20263;-73
2022/05/06 01:45:32;;;;;;;2.65;2.45;;;12.30;84.80;;;;;;5012196;28;20288;-73
2022/05/06 01:48:00;;;;;;;3.53;2.50;;;12.30;85.10;;;;;;5018250;28;20233;-74
2022/05/06 01:50:27;;;;;;;3.40;3.10;;;12.20;84.60;;;;;;5019208;28;20174;-73
2022/05/06 01:52:55;;;;;;;4.45;3.00;;;12.20;84.40;;;;;;5017493;28;20250;-73
2022/05/06 01:55:22;;;;;;;2.65;2.55;;;12.20;84.70;;;;;;5012492;28;20201;-74
2022/05/06 01:57:48;;;;;;;2.58;2.42;;;12.10;84.40;;;;;;5015033;28;20264;-73
2022/05/06 02:00:15;;;;;;;2.55;2.38;;;12.10;84.50;;;;;;5021241;28;20690;-73
2022/05/06 02:02:41;;;;;;;2.50;2.40;;;12.10;84.20;;;;;;5013799;28;20272;-74
2022/05/06 02:05:19;;;;;;;2.72;2.53;;;12.10;85.30;;;;;;5011406;28;20272;-74
2022/05/06 02:07:48;;;;;;;2.45;2.35;;;12.10;85.60;;;;;;5014554;28;20183;-74
2022/05/06 02:10:15;;;;;;;3.92;2.53;;;12.10;85.70;;;;;;5047933;28;20219;-74
2022/05/06 02:12:40;;;;;;;2.67;2.55;;;12.00;84.80;;;;;;5008270;28;20185;-73
2022/05/06 02:15:07;;;;;;;2.50;2.30;;;12.00;85.20;;;;;;5008633;28;20177;-73
2022/05/06 02:17:33;;;;;;;2.92;2.72;;;12.00;85.50;;;;;;5012975;28;20730;-74
2022/05/06 02:19:58;;;;;;;2.38;2.28;;;12.00;86.10;;;;;;5012435;28;20181;-75
2022/05/06 02:22:27;;;;;;;3.25;3.05;;;12.00;86.20;;;;;;5015084;28;20577;-73
2022/05/06 02:24:55;;;;;;;2.50;2.40;;;11.90;85.80;;;;;;5015263;28;20241;-73
2022/05/06 02:27:21;;;;;;;2.00;1.98;;;11.90;85.90;;;;;;5005778;28;20192;-74
2022/05/06 02:35:15;;;;;;;2.83;2.63;;;11.80;85.70;;;;;;5012771;28;20226;-74
2022/05/06 02:37:41;;;;;;;5.57;2.55;;;11.80;86.00;;;;;;5018677;28;20216;-74
2022/05/06 02:40:09;;;;;;;2.70;2.53;;;11.80;86.20;;;;;;5012551;28;20585;-73
2022/05/06 02:42:35;;;;;;;2.28;2.15;;;11.80;86.10;;;;;;5018164;28;20189;-73
2022/05/06 02:45:01;;;;;;;2.38;2.28;;;11.70;85.80;;;;;;5013536;28;20186;-74
2022/05/06 02:47:26;;;;;;;2.88;2.35;;;11.70;85.70;;;;;;5009060;28;20212;-74
2022/05/06 02:49:52;;;;;;;2.45;2.25;;;11.60;85.10;;;;;;5014131;28;20180;-74
2022/05/06 02:52:18;;;;;;;4.03;2.35;;;11.60;86.30;;;;;;5018516;28;20714;-74
2022/05/06 02:54:45;;;;;;;3.88;2.38;;;11.70;86.80;;;;;;5014332;28;20185;-74
2022/05/06 02:57:10;;;;;;;3.00;2.75;;;11.70;86.80;;;;;;5011293;28;20236;-74
2022/05/06 02:59:39;;;;;;;3.00;2.80;;;11.60;87.30;;;;;;5013158;28;20224;-74
2022/05/06 03:02:05;;;;;;;3.03;2.75;;;11.60;86.80;;;;;;5042169;28;20188;-75
2022/05/06 03:04:31;;;;;;;2.63;2.53;;;11.50;86.60;;;;;;5015717;28;20569;-74
2022/05/06 03:06:57;;;;;;;2.00;1.90;;;11.50;86.00;;;;;;5007246;28;20202;-74
2022/05/06 03:09:23;;;;;;;2.78;2.67;;;11.50;86.70;;;;;;5020897;28;20187;-74
2022/05/06 03:11:49;;;;;;;3.63;2.67;;;11.50;86.90;;;;;;5012697;28;20259;-74
2022/05/06 03:14:15;;;;;;;3.33;2.70;;;11.50;86.70;;;;;;5012851;28;21678;-74
2022/05/06 03:16:40;;;;;;;2.63;2.53;;;11.50;87.40;;;;;;5019511;28;20223;-74
2022/05/06 03:19:06;;;;;;;2.53;2.42;;;11.60;86.80;;;;;;5011805;28;20210;-74
2022/05/06 03:21:32;;;;;;;2.40;2.30;;;11.60;86.90;;;;;;5010604;28;20177;-74
2022/05/06 03:23:59;;;;;;;3.08;2.78;;;11.60;86.80;;;;;;5004623;28;20185;-74
2022/05/06 03:26:25;;;;;;;6.90;2.85;;;11.60;86.60;;;;;;5042325;28;20202;-73
2022/05/06 03:28:57;;;;;;;2.47;2.38;;;11.60;86.50;;;;;;5009624;28;20283;-74
2022/05/06 03:31:25;;;;;;;3.63;2.75;;;11.60;86.50;;;;;;5014712;28;20214;-74
2022/05/06 03:33:50;;;;;;;1.92;1.83;;;11.60;87.00;;;;;;5020352;28;20617;-74
2022/05/06 03:36:16;;;;;;;2.30;2.20;;;11.60;86.60;;;;;;5039995;28;20267;-74
2022/05/06 03:38:42;;;;;;;7.05;2.38;;;11.60;86.50;;;;;;5011097;28;20184;-74
2022/05/06 03:41:07;;;;;;;2.72;2.53;;;11.60;86.70;;;;;;5016695;28;20197;-74
2022/05/06 03:43:33;;;;;;;2.30;2.20;;;11.60;87.00;;;;;;5014260;28;20184;-74
2022/05/06 03:45:59;;;;;;;2.72;2.53;;;11.60;86.80;;;;;;5013958;28;20185;-73
2022/05/06 03:48:25;;;;;;;2.15;2.05;;;11.60;86.30;;;;;;5010431;28;20585;-74
2022/05/06 03:53:38;;;;;;;3.17;3.08;;;11.60;87.10;;;;;;5013291;28;20196;-74
2022/05/06 03:56:04;;;;;;;3.10;2.85;;;11.60;86.90;;;;;;5017761;28;20208;-74
2022/05/06 03:58:31;;;;;;;3.30;3.00;;;11.50;86.80;;;;;;5008258;28;20177;-73
2022/05/06 04:00:57;;;;;;;3.00;2.80;;;11.40;87.00;;;;;;5009794;28;20185;-73
2022/05/06 04:03:23;;;;;;;3.05;2.72;;;11.40;87.40;;;;;;5011233;28;20191;-73
2022/05/06 04:05:48;;;;;;;3.95;3.03;;;11.40;87.90;;;;;;5013729;28;20184;-74
2022/05/06 04:08:14;;;;;;;2.47;2.35;;;11.30;87.80;;;;;;5010447;28;20176;-74
2022/05/06 04:10:40;;;;;;;2.78;2.63;;;11.40;87.70;;;;;;5019740;28;20188;-73
2022/05/06 04:13:07;;;;;;;3.60;3.17;;;11.40;87.20;;;;;;5016287;28;20188;-74
2022/05/06 04:15:33;;;;;;;3.78;2.85;;;11.40;87.40;;;;;;5012778;28;20178;-73
2022/05/06 04:18:02;;;;;;;2.72;2.63;;;11.40;87.50;;;;;;5014009;28;20196;-74
2022/05/06 04:23:29;;;;;;;4.85;3.65;;;11.50;87.60;;;;;;5012169;28;20239;-74
2022/05/06 04:26:00;;;;;;;2.72;2.60;;;11.60;87.70;;;;;;5012515;28;20839;-74
2022/05/06 04:28:29;;;;;;;2.78;2.67;;;11.60;87.20;;;;;;5012735;28;20176;-74
2022/05/06 04:30:55;;;;;;;2.90;2.80;;;11.70;87.50;;;;;;5009404;28;20184;-74
2022/05/06 04:33:26;;;;;;;3.28;2.97;;;11.70;87.50;;;;;;5012890;28;20581;-74
2022/05/06 04:35:53;;;;;;;5.97;3.65;;;11.70;87.70;;;;;;5012521;28;21277;-73
2022/05/06 04:38:20;;;;;;;4.15;3.75;;;11.80;87.70;;;;;;5010869;28;20188;-74
2022/05/06 04:40:47;;;;;;;4.93;4.30;;;11.80;87.50;;;;;;5014993;28;20602;-73
2022/05/06 04:43:13;;;;;;;4.65;3.83;;;11.90;87.50;;;;;;5016377;28;20314;-74
2022/05/06 04:45:41;;;;;;;5.72;4.47;;;11.90;87.30;;;;;;5015729;28;20181;-74
2022/05/06 04:48:08;;;;;;;4.25;3.97;;;11.90;87.30;;;;;;5018835;28;20279;-74
2022/05/06 04:50:34;;;;;;;3.55;3.25;;;12.00;87.40;;;;;;5055054;28;20242;-74
2022/05/06 04:53:01;;;;;;;3.97;3.45;;;12.00;87.30;;;;;;5016166;28;20181;-74
2022/05/06 04:55:27;;;;;;;4.82;4.30;;;12.00;87.20;;;;;;5016149;28;20219;-74
2022/05/06 04:57:53;;;;;;;5.95;4.40;;;12.10;87.20;;;;;;5016848;28;20281;-74
2022/05/06 05:00:20;;;;;;;5.82;4.03;;;12.10;87.10;;;;;;5014891;28;20256;-74
2022/05/06 05:02:46;;;;;;;4.05;3.75;;;12.10;86.70;;;;;;5017537;28;20180;-74
2022/05/06 05:05:12;;;;;;;4.57;4.03;;;12.10;86.70;;;;;;5013381;28;20192;-74
2022/05/06 05:07:38;;;;;;;5.00;4.53;;;12.20;87.30;;;;;;5021655;28;20185;-74
2022/05/06 05:10:04;;;;;;;4.25;3.95;;;12.20;87.00;;;;;;5013022;28;20655;-74
2022/05/06 05:12:31;;;;;;;8.38;4.95;;;12.30;86.90;;;;;;5016400;28;20300;-75
2022/05/06 05:14:57;;;;;;;4.70;4.40;;;12.30;86.70;;;;;;5012790;28;20181;-75
2022/05/06 05:17:23;;;;;;;6.60;4.95;;;12.40;86.60;;;;;;5015134;28;20605;-74
2022/05/06 05:19:48;;;;;;;5.63;4.28;;;12.40;86.30;;;;;;5017480;28;20188;-74
2022/05/06 05:22:14;;;;;;;4.65;4.25;;;12.50;86.10;;;;;;5016216;28;20283;-74
2022/05/06 05:24:40;;;;;;;8.65;4.13;;;12.60;86.20;;;;;;5011833;28;20199;-74
2022/05/06 05:27:06;;;;;;;6.63;4.65;;;12.60;86.20;;;;;;5010735;28;20663;-74
2022/05/06 05:29:32;;;;;;;4.82;4.53;;;12.70;86.10;;;;;;5016462;28;20191;-74
2022/05/06 05:31:58;;;;;;;4.57;4.18;;;12.80;85.80;;;;;;5014351;28;20176;-74
2022/05/06 05:34:23;;;;;;;4.85;4.35;;;12.90;85.70;;;;;;5010980;28;20185;-75
2022/05/06 05:36:50;;;;;;;4.43;4.03;;;12.90;85.50;;;;;;5021858;28;20964;-75
2022/05/06 05:39:15;;;;;;;4.25;3.78;;;13.00;85.30;;;;;;5014698;28;20569;-74
2022/05/06 05:41:41;;;;;;;4.13;3.72;;;13.10;85.20;;;;;;5019865;28;20176;-74
2022/05/06 05:49:35;;;;;;;4.32;3.92;;;13.30;84.60;;;;;;5016502;28;20635;-74
2022/05/06 05:52:01;;;;;;;4.43;4.13;;;13.40;85.00;;;;;;5016164;28;20259;-74
2022/05/06 05:54:28;;;;;;;4.35;3.95;;;13.50;84.90;;;;;;5013572;28;20180;-74
2022/05/06 05:56:54;;;;;;;4.32;4.05;;;13.60;84.60;;;;;;5014884;28;20224;-75
2022/05/06 05:59:20;;;;;;;5.35;4.20;;;13.60;84.20;;;;;;5014107;28;20173;-73
2022/05/06 06:01:46;;;;;;;3.83;3.47;;;13.80;84.20;;;;;;5013639;28;20181;-74
2022/05/06 06:04:12;;;;;;;7.53;3.50;;;13.80;83.80;;;;;;5012543;28;20184;-75
2022/05/06 06:06:37;;;;;;;5.90;4.28;;;13.90;84.00;;;;;;5011525;28;20254;-73
2022/05/06 06:09:03;;;;;;;4.10;3.80;;;14.10;83.60;;;;;;5012178;28;20188;-74
2022/05/06 06:11:29;;;;;;;3.90;3.60;;;14.10;83.40;;;;;;5015001;28;20722;-74
2022/05/06 06:13:55;;;;;;;4.50;4.13;;;14.20;83.50;;;;;;5020032;28;20212;-74
2022/05/06 06:16:20;;;;;;;5.03;3.47;;;14.30;83.40;;;;;;5011959;28;20256;-74
2022/05/06 06:18:47;;;;;;;4.43;4.10;;;14.40;83.40;;;;;;5012375;28;20686;-75
2022/05/06 06:21:13;;;;;;;7.85;3.70;;;14.60;83.10;;;;;;5013329;28;20992;-73
2022/05/06 06:23:38;;;;;;;3.47;3.22;;;14.70;82.90;;;;;;5013053;28;20774;-74
2022/05/06 06:26:07;;;;;;;3.80;3.60;;;14.90;82.80;;;;;;5012701;28;20192;-75
2022/05/06 06:28:32;;;;;;;4.63;4.22;;;15.00;82.70;;;;;;5014081;28;20846;-75
2022/05/06 06:30:58;;;;;;;3.97;3.67;;;15.10;82.20;;;;;;5045312;28;20185;-75
2022/05/06 06:33:24;;;;;;;4.55;4.15;;;15.30;82.30;;;;;;5012926;28;20239;-75
2022/05/06 06:35:49;;;;;;;3.35;3.15;;;15.40;82.00;;;;;;5013111;28;20183;-76
2022/05/06 06:38:15;;;;;;;4.20;3.95;;;15.60;81.80;;;;;;5009600;28;20286;-76
2022/05/06 06:40:41;;;;;;;6.93;4.18;;;15.70;80.90;;;;;;5014848;28;20675;-75
2022/05/06 06:43:07;;;;;;;5.82;4.03;;;15.80;80.80;;;;;;5010492;28;20510;-74
2022/05/06 06:45:34;;;;;;;3.50;3.15;;;15.90;80.50;;;;;;5017330;28;20267;-75
2022/05/06 06:48:00;;;;;;;3.50;3.22;;;16.00;80.60;;;;;;5040915;28;20211;-74
2022/05/06 06:50:26;;;;;;;3.47;3.03;;;16.20;79.90;;;;;;5014697;28;20651;-74
2022/05/06 06:52:52;;;;;;;3.15;3.05;;;16.30;79.70;;;;;;5012004;28;20196;-74
2022/05/06 06:55:18;;;;;;;4.25;3.35;;;16.40;79.00;;;;;;5017272;28;20226;-74
2022/05/06 06:57:44;;;;;;;5.05;3.60;;;16.50;78.90;;;;;;5006950;28;20216;-75
2022/05/06 07:00:11;;;;;;;2.80;2.70;;;16.60;77.80;;;;;;5009858;28;20192;-74
2022/05/06 07:02:37;;;;;;;2.90;2.67;;;16.70;77.70;;;;;;5026557;28;20234;-73
2022/05/06 07:05:23;;;;;;;9.23;3.08;;;16.80;77.70;;;;;;5011495;28;20184;-79
2022/05/06 07:13:22;;;;;;;6.60;2.95;;;17.00;75.50;;;;;;4943249;29;20279;-75
2022/05/06 07:15:48;;;;;;;2.40;2.30;;;17.10;75.40;;;;;;4943200;29;20203;-74
2022/05/06 07:18:13;;;;;;;2.05;1.95;;;17.20;75.90;;;;;;4942602;28;20576;-74
2022/05/06 07:20:40;;;;;;;4.70;1.88;;;17.30;75.70;;;;;;4942023;28;20250;-75
2022/05/06 07:23:06;;;;;;;2.70;2.60;;;17.40;74.30;;;;;;4941594;29;20199;-74
2022/05/06 07:25:31;;;;;;;2.47;2.35;;;17.50;74.00;;;;;;4941934;28;20213;-74
2022/05/06 07:27:57;;;;;;;2.30;2.20;;;17.40;73.80;;;;;;4942884;29;20254;-75
2022/05/06 07:30:23;;;;;;;2.70;2.50;;;17.50;73.50;;;;;;4941856;29;20846;-75
2022/05/06 07:32:48;;;;;;;2.47;2.33;;;17.60;74.30;;;;;;4942193;28;20288;-75
2022/05/06 07:35:14;;;;;;;2.28;2.17;;;17.70;74.80;;;;;;4943384;29;20183;-74
2022/05/06 07:37:41;;;;;;;2.05;1.92;;;17.80;74.70;;;;;;4943134;28;20244;-74
2022/05/06 07:40:10;;;;;;;2.40;2.33;;;17.90;74.10;;;;;;4926176;28;20195;-73
2022/05/06 07:42:37;;;;;;;2.63;2.42;;;18.00;74.00;;;;;;4926413;29;20217;-73
2022/05/06 07:45:03;;;;;;;2.60;2.50;;;18.20;73.60;;;;;;4942831;28;20207;-73
2022/05/06 07:47:29;;;;;;;2.17;2.15;;;18.30;73.10;;;;;;4942138;28;20190;-74
2022/05/06 07:49:55;;;;;;;2.28;2.25;;;18.50;72.80;;;;;;4964805;28;20184;-75
2022/05/06 07:52:20;;;;;;;4.70;2.42;;;18.60;72.70;;;;;;5012435;28;20195;-74
2022/05/06 07:54:46;;;;;;;2.17;2.08;;;18.60;70.70;;;;;;5011640;28;20188;-75
2022/05/06 07:57:12;;;;;;;2.33;2.13;;;18.70;70.70;;;;;;5014284;28;20713;-74
2022/05/06 07:59:38;;;;;;;2.70;2.50;;;18.70;71.50;;;;;;5018637;28;20181;-74
2022/05/06 08:04:50;;;;;;;2.83;2.72;;;18.90;71.10;;;;;;5009666;28;20867;-73
2022/05/06 08:07:17;;;;;;;2.10;1.95;;;19.00;70.50;;;;;;5006754;28;20639;-74
2022/05/06 08:09:43;;;;;;;2.15;1.95;;;19.10;71.00;;;;;;5009660;28;20883;-74
2022/05/06 08:12:10;;;;;;;2.50;2.30;;;19.20;70.10;;;;;;5007402;28;20189;-75
2022/05/06 08:14:36;;;;;;;2.35;2.25;;;19.20;70.80;;;;;;5011591;28;20184;-74
2022/05/06 08:17:02;;;;;;;3.33;2.63;;;19.40;71.10;;;;;;5010173;28;20224;-74
2022/05/06 08:19:29;;;;;;;3.78;2.33;;;19.50;68.60;;;;;;5009817;28;20184;-74
2022/05/06 08:21:55;;;;;;;2.45;2.10;;;19.60;69.80;;;;;;5014792;28;20176;-74
2022/05/06 08:24:22;;;;;;;2.63;2.50;;;19.60;70.50;;;;;;5008515;28;20188;-74
2022/05/06 08:26:48;;;;;;;2.33;2.22;;;19.70;69.90;;;;;;5006070;28;20184;-74
2022/05/06 08:29:14;;;;;;;2.10;2.00;;;19.90;70.10;;;;;;5026888;28;20623;-73
2022/05/06 08:31:40;;;;;;;2.40;2.30;;;20.10;70.10;;;;;;5008809;28;20280;-75
2022/05/06 08:34:11;;;;;;;2.17;2.08;;;20.20;69.60;;;;;;5015621;28;20184;-71
2022/05/06 08:36:39;;;;;;;2.40;2.30;;;20.30;70.00;;;;;;5009437;28;20212;-75
2022/05/06 08:39:05;;;;;;;2.60;2.50;;;20.50;69.30;;;;;;5011472;28;20184;-75
2022/05/06 08:41:32;;;;;;;2.75;2.65;;;20.60;69.40;;;;;;5004702;28;20574;-75
2022/05/06 08:50:50;;;;;;;2.30;2.08;;;20.70;69.10;;;;;;5011526;28;20264;-80
2022/05/06 08:52:23;;;;;;;1.92;1.92;;;21.20;68.00;;;;;;5013030;28;20175;-72
2022/05/06 08:54:51;;;;;;;3.45;2.15;;;21.30;67.10;;;;;;5009012;28;20203;-75
2022/05/06 08:57:17;;;;;;;2.63;2.40;;;21.30;67.70;;;;;;5012463;28;20238;-74
2022/05/06 08:59:43;;;;;;;3.92;2.35;;;21.40;66.90;;;;;;5014914;28;20196;-74
2022/05/06 09:02:10;;;;;;;2.53;2.40;;;21.60;66.80;;;;;;5012134;28;20564;-75
2022/05/06 09:04:39;;;;;;;2.47;2.38;;;21.60;65.90;;;;;;5008633;28;20214;-77
2022/05/06 09:07:19;;;;;;;2.88;2.75;;;21.80;66.40;;;;;;5015963;28;20188;-76
2022/05/06 09:10:14;;;;;;;2.13;2.08;;;22.00;66.30;;;;;;5026654;28;20208;-76
2022/05/06 09:12:45;;;;;;;2.50;2.45;;;22.20;65.00;;;;;;5006895;28;20184;-76
2022/05/06 09:17:59;;;;;;;3.22;2.40;;;22.40;65.60;;;;;;5015686;28;20342;-76
2022/05/06 09:20:26;;;;;;;2.80;2.70;;;22.50;64.20;;;;;;5015634;28;20836;-77
2022/05/06 09:22:52;;;;;;;3.55;2.72;;;22.60;64.70;;;;;;5011416;28;20182;-76
2022/05/06 09:25:37;;;;;;;2.85;2.70;;;22.70;64.80;;;;;;5017501;28;20184;-77
2022/05/06 09:28:03;;;;;;;2.50;2.40;;;22.90;64.80;;;;;;5016661;28;20191;-76
2022/05/06 09:30:29;;;;;;;2.58;2.47;;;22.90;64.20;;;;;;5012184;28;20208;-77
2022/05/06 09:32:55;;;;;;;2.60;2.40;;;23.00;63.90;;;;;;5013852;28;20212;-76
2022/05/06 09:35:26;;;;;;;2.92;2.83;;;22.90;63.60;;;;;;5017015;28;20642;-76
2022/05/06 09:37:52;;;;;;;2.85;2.75;;;22.90;63.30;;;;;;5014471;28;20636;-76
2022/05/06 09:40:20;;;;;;;2.63;2.42;;;22.90;63.50;;;;;;5019565;28;20184;-77
2022/05/06 09:42:57;;;;;;;2.60;2.50;;;22.90;63.70;;;;;;5015145;28;20563;-77
2022/05/06 09:45:39;;;;;;;2.58;2.47;;;23.00;63.20;;;;;;5017992;28;20193;-76
2022/05/06 09:48:06;;;;;;;2.42;2.42;;;22.90;63.50;;;;;;5019112;28;20184;-76
2022/05/06 09:50:42;;;;;;;2.78;2.45;;;23.00;63.60;;;;;;5014483;28;20173;-76
2022/05/06 09:53:13;;;;;;;2.17;2.17;;;22.90;63.30;;;;;;5013192;28;20666;-78
2022/05/06 09:55:46;;;;;;;3.03;2.80;;;23.00;62.70;;;;;;5010286;28;20264;-76
2022/05/06 09:58:16;;;;;;;2.42;2.42;;;23.10;63.00;;;;;;5018564;28;21510;-77
2022/05/06 10:00:42;;;;;;;2.45;2.45;;;23.20;62.10;;;;;;5013576;28;20580;-76
2022/05/06 10:03:11;;;;;;;4.13;2.22;;;23.30;61.70;;;;;;5012066;28;20714;-76
2022/05/06 10:05:38;;;;;;;2.58;2.47;;;23.40;61.60;;;;;;5017039;28;20177;-76
2022/05/06 10:08:15;;;;;;;2.25;2.25;;;23.50;61.50;;;;;;5016698;28;20887;-77
2022/05/06 10:10:46;;;;;;;2.38;2.28;;;23.60;61.80;;;;;;5017594;28;20176;-77
2022/05/06 10:13:17;;;;;;;2.33;2.33;;;23.60;61.20;;;;;;5012495;28;20213;-77
2022/05/06 10:15:49;;;;;;;2.40;2.33;;;23.70;60.20;;;;;;5015631;28;20199;-77
2022/05/06 10:18:34;;;;;;;2.25;2.10;;;23.80;59.70;;;;;;5016822;28;20666;-76
2022/05/06 10:21:03;;;;;;;2.25;2.13;;;23.70;59.40;;;;;;5010241;28;20220;-76
2022/05/06 10:23:46;;;;;;;3.08;2.88;;;23.50;58.80;;;;;;5011345;28;20181;-76
2022/05/06 10:26:33;;;;;;;2.50;2.40;;;23.40;59.40;;;;;;5012624;28;20662;-76
2022/05/06 10:34:31;;;;;;;2.47;2.38;;;23.60;59.10;;;;;;5014221;28;20335;-76
2022/05/06 10:37:00;;;;;;;2.38;2.28;;;23.80;59.00;;;;;;5018179;28;20212;-76
2022/05/06 10:39:36;;;;;;;2.30;2.28;;;24.00;58.30;;;;;;5041537;28;20189;-76
2022/05/06 10:42:11;;;;;;;2.15;2.15;;;24.00;57.80;;;;;;5011218;28;20621;-76
2022/05/06 10:44:50;;;;;;;2.33;2.17;;;24.00;58.40;;;;;;5014221;28;20654;-76
2022/05/06 10:47:15;;;;;;;4.60;2.38;;;24.10;58.50;;;;;;5013944;28;20176;-77
2022/05/06 10:49:43;;;;;;;2.22;2.22;;;24.10;58.60;;;;;;5019723;28;20184;-76
2022/05/06 10:52:19;;;;;;;2.25;2.25;;;24.20;57.90;;;;;;5016011;28;20541;-76
2022/05/06 10:54:53;;;;;;;2.42;2.22;;;24.30;56.10;;;;;;5012428;28;20670;-76
2022/05/06 10:57:23;;;;;;;3.25;2.50;;;24.30;56.40;;;;;;5016588;28;20914;-76
2022/05/06 10:59:58;;;;;;;2.35;2.25;;;24.20;57.20;;;;;;5013205;28;20214;-76
2022/05/06 11:02:29;;;;;;;2.65;2.45;;;24.20;57.40;;;;;;5011089;28;20180;-76
2022/05/06 11:05:02;;;;;;;4.57;2.33;;;24.10;57.90;;;;;;5015395;28;20741;-76
2022/05/06 11:07:30;;;;;;;2.17;2.08;;;24.20;57.40;;;;;;5009884;28;20185;-76
2022/05/06 11:09:59;;;;;;;2.65;2.10;;;24.30;57.80;;;;;;5012269;28;20188;-76
2022/05/06 11:12:31;;;;;;;1.70;1.70;;;24.40;56.60;;;;;;5018726;28;20562;-77
2022/05/06 11:14:58;;;;;;;1.90;1.90;;;24.50;57.50;;;;;;5009127;28;20194;-76
2022/05/06 11:17:26;;;;;;;2.25;2.17;;;24.60;57.00;;;;;;5013188;28;20240;-76
2022/05/06 11:19:52;;;;;;;1.92;1.83;;;24.90;56.40;;;;;;5017412;28;20630;-75
2022/05/06 11:22:20;;;;;;;1.55;1.55;;;25.10;56.10;;;;;;5017329;28;20192;-76
2022/05/06 11:24:46;;;;;;;2.22;2.13;;;25.30;55.70;;;;;;5042276;28;20192;-77
2022/05/06 11:27:16;;;;;;;2.08;2.08;;;25.50;54.50;;;;;;5012528;28;20573;-77
2022/05/06 11:29:55;;;;;;;1.83;1.83;;;25.70;54.20;;;;;;5009413;28;20184;-76
2022/05/06 11:32:22;;;;;;;2.38;1.30;;;25.60;54.30;;;;;;5011889;28;20659;-77
2022/05/06 11:35:06;;;;;;;1.50;1.50;;;25.50;54.00;;;;;;5010733;28;20180;-76
2022/05/06 11:37:34;;;;;;;2.35;1.70;;;25.50;55.50;;;;;;5009091;28;20222;-77
2022/05/06 11:42:45;;;;;;;1.33;1.33;;;25.70;53.90;;;;;;5009101;28;20677;-74
2022/05/06 11:48:18;;;;;;;1.40;1.40;;;26.00;54.00;;;;;;5005750;28;20211;-74
2022/05/06 11:50:46;;;;;;;4.18;1.48;;;26.20;52.50;;;;;;5045882;28;20185;-77
2022/05/06 11:53:17;;;;;;;1.70;1.60;;;26.30;53.30;;;;;;5012430;28;20172;-76
2022/05/06 11:55:46;;;;;;;1.38;1.15;;;26.50;52.10;;;;;;5008639;28;20243;-75
2022/05/06 11:58:17;;;;;;;1.50;1.40;;;26.70;51.80;;;;;;5021769;28;20207;-74
2022/05/06 12:00:44;;;;;;;1.08;1.08;;;27.00;51.20;;;;;;5011927;28;20188;-77
2022/05/06 12:03:11;;;;;;;1.15;1.13;;;27.10;50.80;;;;;;5009391;28;20569;-76
2022/05/06 12:05:38;;;;;;;1.27;1.27;;;27.30;51.00;;;;;;5014591;28;20713;-75
2022/05/06 12:08:05;;;;;;;1.35;1.35;;;27.60;52.10;;;;;;5014289;28;20188;-76
2022/05/06 12:10:32;;;;;;;1.38;1.33;;;27.80;50.50;;;;;;5011649;28;20582;-76
2022/05/06 12:13:00;;;;;;;2.83;1.17;;;28.10;50.70;;;;;;5004704;28;21955;-77
2022/05/06 12:15:33;;;;;;;4.00;1.10;;;28.30;49.30;;;;;;5007476;28;20180;-77
2022/05/06 12:18:11;;;;;;;2.78;1.48;;;28.60;47.50;;;;;;5006196;28;20273;-77
2022/05/06 12:20:40;;;;;;;1.20;1.20;;;28.90;48.60;;;;;;5010096;28;20180;-76
2022/05/06 12:23:07;;;;;;;1.48;1.48;;;29.30;47.40;;;;;;5010977;28;20176;-77
2022/05/06 12:25:40;;;;;;;1.35;0.90;;;29.60;47.20;;;;;;5037839;28;20235;-76
2022/05/06 12:28:15;;;;;;;1.35;1.35;;;29.90;46.00;;;;;;5008178;28;22130;-76
2022/05/06 12:30:42;;;;;;;3.42;1.35;;;30.10;45.60;;;;;;5011207;28;20176;-77
2022/05/06 12:33:12;;;;;;;3.72;1.33;;;30.20;45.80;;;;;;5046764;28;20196;-77
2022/05/06 12:35:58;;;;;;;1.23;1.15;;;30.60;46.00;;;;;;5008474;28;20246;-76
2022/05/06 12:38:46;;;;;;;1.00;1.00;;;31.10;45.90;;;;;;5023133;28;20479;-77
2022/05/06 12:41:34;;;;;;;1.33;1.20;;;31.50;44.30;;;;;;5008677;28;20184;-77
2022/05/06 12:44:36;;;;;;;0.95;0.95;;;31.80;42.30;;;;;;5011758;28;20189;-76
2022/05/06 12:47:12;;;;;;;0.85;0.85;;;31.50;42.50;;;;;;4964956;28;20289;-77
2022/05/06 12:49:40;;;;;;;4.40;1.10;;;31.40;42.20;;;;;;4966787;28;20201;-76
2022/05/06 12:52:11;;;;;;;1.02;1.02;;;31.30;43.20;;;;;;4966110;28;20189;-78
2022/05/06 12:54:38;;;;;;;1.08;1.08;;;31.40;43.50;;;;;;4970194;28;20975;-77
2022/05/06 12:57:04;;;;;;;2.45;0.98;;;31.30;43.80;;;;;;4971525;28;20949;-77
2022/05/06 12:59:30;;;;;;;1.10;1.10;;;31.40;43.30;;;;;;4964616;28;20194;-77
2022/05/06 13:01:56;;;;;;;1.30;1.23;;;31.40;44.90;;;;;;4975861;28;20192;-77
2022/05/06 13:04:22;;;;;;;1.40;1.30;;;31.40;43.60;;;;;;4973649;28;20191;-76
2022/05/06 13:06:48;;;;;;;0.93;0.93;;;31.50;43.30;;;;;;4978536;28;20727;-76
2022/05/06 13:09:14;;;;;;;1.30;1.20;;;31.40;41.70;;;;;;4973310;28;20210;-76
2022/05/06 13:11:40;;;;;;;1.13;1.13;;;31.00;43.20;;;;;;4955569;28;20309;-76
2022/05/06 13:14:08;;;;;;;3.22;1.15;;;30.50;42.20;;;;;;4970259;28;20714;-74
2022/05/06 13:16:35;;;;;;;2.33;0.90;;;30.00;42.00;;;;;;4969702;28;20233;-76
2022/05/06 13:19:03;;;;;;;2.70;0.88;;;29.30;41.60;;;;;;4973933;28;20214;-76
2022/05/06 13:21:28;;;;;;;1.00;0.90;;;28.50;41.90;;;;;;4971732;28;20763;-77
2022/05/06 13:23:55;;;;;;;1.52;1.20;;;27.80;45.70;;;;;;5018550;28;20197;-77
2022/05/06 13:26:20;;;;;;;1.40;1.15;;;27.40;45.20;;;;;;5051407;28;20685;-76
2022/05/06 13:28:46;;;;;;;0.73;0.73;;;27.00;44.10;;;;;;5012758;28;20181;-76
2022/05/06 13:31:13;;;;;;;0.70;0.70;;;26.50;45.70;;;;;;5017326;28;20957;-77
2022/05/06 13:33:39;;;;;;;1.92;1.10;;;26.10;45.00;;;;;;5014630;28;20238;-75
2022/05/06 13:36:05;;;;;;;1.50;0.93;;;25.70;47.10;;;;;;5015984;28;20891;-76
2022/05/06 13:38:31;;;;;;;0.85;0.85;;;25.60;47.20;;;;;;5016710;28;20261;-77